Time;durP1;ratioP1;P1;durP2;ratioP2;P2;SDS_P1;SDS_P2;PMS_P1;PMS_P2;Temp;Humidity;BMP_temperature;BMP_pressure;BME280_temperature;BME280_humidity;BME280_pressure;Samples;Min_cycle;Max_cycle;Signal;HPM_P1;HPM_P2
2022/09/08 00:00:09;;;;;;;24.83;22.53;;;18.40;99.90;;;;;;5068638;28;20536;-72
2022/09/08 00:02:38;;;;;;;24.83;22.60;;;18.40;99.90;;;;;;5065873;28;20905;-73
2022/09/08 00:05:06;;;;;;;30.23;27.30;;;18.40;99.90;;;;;;5067101;28;21013;-73
2022/09/08 00:07:35;;;;;;;26.80;24.30;;;18.40;99.90;;;;;;5069389;28;20583;-72
2022/09/08 00:10:02;;;;;;;31.13;28.10;;;18.30;99.90;;;;;;5061068;28;20453;-72
2022/09/08 00:12:29;;;;;;;26.90;24.50;;;18.30;99.90;;;;;;5068955;28;20852;-73
2022/09/08 00:14:56;;;;;;;30.10;27.37;;;18.20;99.90;;;;;;5064894;28;20447;-72
2022/09/08 00:17:24;;;;;;;27.77;25.27;;;18.20;99.90;;;;;;5062605;28;20458;-73
2022/09/08 00:19:52;;;;;;;29.30;25.13;;;18.30;99.90;;;;;;5063186;28;20951;-73
2022/09/08 00:22:19;;;;;;;27.37;24.53;;;18.10;99.90;;;;;;5062810;28;20449;-72
2022/09/08 00:24:46;;;;;;;30.63;27.53;;;18.00;99.90;;;;;;5065427;28;20548;-72
2022/09/08 00:27:13;;;;;;;28.73;25.90;;;18.10;99.90;;;;;;5068821;28;20481;-73
2022/09/08 00:29:40;;;;;;;28.70;26.07;;;18.10;99.90;;;;;;5065675;28;20578;-73
2022/09/08 00:32:07;;;;;;;37.63;33.80;;;18.10;99.90;;;;;;5071688;28;20555;-73
2022/09/08 00:34:34;;;;;;;31.40;28.40;;;18.00;99.90;;;;;;5067152;28;20527;-73
2022/09/08 00:37:02;;;;;;;29.13;26.40;;;18.00;99.90;;;;;;5063282;28;20464;-73
2022/09/08 00:39:29;;;;;;;30.87;28.00;;;18.00;99.90;;;;;;5070623;28;20453;-73
2022/09/08 00:41:56;;;;;;;29.73;26.87;;;18.00;99.90;;;;;;5071406;28;20793;-73
2022/09/08 00:44:49;;;;;;;29.17;26.37;;;17.90;99.90;;;;;;5072066;28;20445;-73
2022/09/08 00:47:22;;;;;;;31.50;28.60;;;17.90;99.90;;;;;;5056110;28;20844;-71
2022/09/08 00:49:53;;;;;;;32.13;29.07;;;17.90;99.90;;;;;;5071040;28;20449;-73
2022/09/08 00:52:22;;;;;;;31.13;28.50;;;17.80;99.90;;;;;;5070628;28;20444;-74
2022/09/08 00:54:50;;;;;;;30.50;27.60;;;17.80;99.90;;;;;;5076917;28;20483;-72
2022/09/08 00:57:17;;;;;;;31.77;28.87;;;17.70;99.90;;;;;;5071485;28;20464;-73
2022/09/08 00:59:46;;;;;;;29.13;26.37;;;17.70;99.90;;;;;;5070360;28;20445;-74
2022/09/08 01:02:24;;;;;;;28.80;26.20;;;17.70;99.90;;;;;;5071137;28;20935;-72
2022/09/08 01:04:58;;;;;;;30.70;27.90;;;17.60;99.90;;;;;;5072005;28;20911;-74
2022/09/08 01:13:12;;;;;;;28.90;26.30;;;17.60;99.90;;;;;;5066564;28;20435;-73
2022/09/08 01:15:40;;;;;;;31.03;28.03;;;17.50;99.90;;;;;;5070983;28;20821;-73
2022/09/08 01:18:06;;;;;;;29.83;27.03;;;17.60;99.90;;;;;;5071510;28;20453;-73
2022/09/08 01:20:45;;;;;;;27.97;25.20;;;17.50;99.90;;;;;;5066919;28;20528;-74
2022/09/08 01:23:44;;;;;;;29.73;27.03;;;17.50;99.90;;;;;;5072218;28;20441;-74
2022/09/08 01:26:45;;;;;;;26.97;24.47;;;17.50;99.90;;;;;;5061538;28;20524;-73
2022/09/08 01:29:15;;;;;;;28.33;25.60;;;17.50;99.90;;;;;;5069748;28;20432;-73
2022/09/08 01:31:43;;;;;;;29.37;26.47;;;17.50;99.90;;;;;;5078516;28;20440;-73
2022/09/08 01:34:10;;;;;;;26.17;23.87;;;17.50;99.90;;;;;;5091449;28;20518;-73
2022/09/08 01:36:37;;;;;;;30.50;27.87;;;17.50;99.90;;;;;;5081407;28;20464;-73
2022/09/08 01:39:04;;;;;;;30.00;27.30;;;17.50;99.90;;;;;;5075653;28;20539;-73
2022/09/08 01:41:33;;;;;;;28.00;25.40;;;17.50;99.90;;;;;;5077890;28;20467;-73
2022/09/08 01:43:59;;;;;;;27.50;25.00;;;17.50;99.90;;;;;;5070961;28;20454;-73
2022/09/08 01:46:29;;;;;;;27.53;25.10;;;17.50;99.90;;;;;;5072657;28;20556;-72
2022/09/08 01:48:56;;;;;;;27.73;25.23;;;17.50;99.90;;;;;;5067910;28;20520;-72
2022/09/08 01:51:23;;;;;;;27.60;24.80;;;17.50;99.90;;;;;;5072233;28;20862;-72
2022/09/08 01:53:50;;;;;;;29.17;26.20;;;17.50;99.90;;;;;;5079817;28;20452;-72
2022/09/08 01:56:17;;;;;;;26.97;24.43;;;17.40;99.90;;;;;;5082817;28;20447;-72
2022/09/08 01:58:45;;;;;;;28.67;25.97;;;17.50;99.90;;;;;;5075365;28;20439;-72
2022/09/08 02:01:13;;;;;;;31.83;29.00;;;17.50;99.90;;;;;;5063451;28;20446;-73
2022/09/08 02:03:41;;;;;;;29.40;26.40;;;17.50;99.90;;;;;;5073247;28;20483;-72
2022/09/08 02:06:09;;;;;;;31.60;28.50;;;17.40;99.90;;;;;;5070995;28;20437;-72
2022/09/08 02:08:36;;;;;;;28.53;25.93;;;17.40;99.90;;;;;;5073657;28;20565;-72
2022/09/08 02:11:03;;;;;;;28.30;25.70;;;17.30;99.90;;;;;;5068542;28;20483;-73
2022/09/08 02:13:31;;;;;;;30.00;27.30;;;17.30;99.90;;;;;;5064823;28;20456;-73
2022/09/08 02:16:00;;;;;;;30.30;27.30;;;17.40;99.90;;;;;;5075150;28;20451;-75
2022/09/08 02:18:31;;;;;;;29.17;26.37;;;17.40;99.90;;;;;;5068424;28;20552;-72
2022/09/08 02:21:07;;;;;;;29.70;26.63;;;17.40;99.90;;;;;;5073336;28;20531;-74
2022/09/08 02:23:35;;;;;;;29.80;26.93;;;17.40;99.90;;;;;;5066888;28;20449;-73
2022/09/08 02:26:02;;;;;;;32.33;29.20;;;17.40;99.90;;;;;;5062636;28;20471;-73
2022/09/08 02:28:28;;;;;;;30.90;27.97;;;17.40;99.90;;;;;;5068203;28;20511;-73
2022/09/08 02:30:59;;;;;;;30.03;27.30;;;17.40;99.90;;;;;;5067391;28;20544;-73
2022/09/08 02:33:27;;;;;;;30.53;27.63;;;17.30;99.90;;;;;;5061516;28;20453;-73
2022/09/08 02:35:54;;;;;;;30.47;27.47;;;17.40;99.90;;;;;;5071953;28;20476;-73
2022/09/08 02:38:24;;;;;;;28.80;26.00;;;17.40;99.90;;;;;;5066508;28;20550;-74
2022/09/08 02:40:51;;;;;;;32.90;29.60;;;17.40;99.90;;;;;;5062201;28;20456;-73
2022/09/08 02:43:20;;;;;;;28.00;25.07;;;17.40;99.90;;;;;;5066205;28;20449;-73
2022/09/08 02:45:47;;;;;;;25.53;23.03;;;17.40;99.90;;;;;;5074147;28;20791;-73
2022/09/08 02:48:14;;;;;;;27.63;25.10;;;17.40;99.90;;;;;;5068059;28;20568;-73
2022/09/08 02:50:42;;;;;;;25.67;22.67;;;17.40;99.90;;;;;;5062843;28;20452;-74
2022/09/08 02:53:09;;;;;;;27.00;24.47;;;17.40;99.90;;;;;;5069022;28;20934;-73
2022/09/08 02:55:42;;;;;;;27.57;24.97;;;17.30;99.90;;;;;;5071341;28;20478;-73
2022/09/08 02:58:11;;;;;;;29.70;26.87;;;17.30;99.90;;;;;;5073115;28;20470;-74
2022/09/08 03:00:39;;;;;;;27.60;24.80;;;17.40;99.90;;;;;;5072951;28;20448;-73
2022/09/08 03:03:06;;;;;;;28.23;25.43;;;17.30;99.90;;;;;;5072194;28;20446;-74
2022/09/08 03:05:34;;;;;;;28.50;25.63;;;17.30;99.90;;;;;;5068308;28;20466;-74
2022/09/08 03:08:03;;;;;;;27.00;24.50;;;17.30;99.90;;;;;;5067931;28;20581;-73
2022/09/08 03:10:30;;;;;;;26.80;24.37;;;17.20;99.90;;;;;;5072890;28;20492;-74
2022/09/08 03:12:59;;;;;;;29.60;26.63;;;17.20;99.90;;;;;;5072498;28;20442;-73
2022/09/08 03:15:31;;;;;;;26.20;23.80;;;17.20;99.90;;;;;;5068855;28;20882;-74
2022/09/08 03:17:58;;;;;;;27.00;24.37;;;17.20;99.90;;;;;;5070401;28;20461;-73
2022/09/08 03:20:26;;;;;;;28.17;25.57;;;17.20;99.90;;;;;;5070248;28;20537;-73
2022/09/08 03:22:53;;;;;;;27.43;24.83;;;17.20;99.90;;;;;;5072591;28;20448;-73
2022/09/08 03:25:20;;;;;;;23.77;21.43;;;17.20;99.90;;;;;;5073301;28;20447;-73
2022/09/08 03:27:47;;;;;;;26.33;23.73;;;17.20;99.90;;;;;;5069913;28;20560;-73
2022/09/08 03:30:17;;;;;;;25.50;23.40;;;17.30;99.90;;;;;;5065836;28;20469;-73
2022/09/08 03:32:46;;;;;;;24.87;22.50;;;17.20;99.90;;;;;;5077474;28;20514;-73
2022/09/08 03:35:15;;;;;;;24.97;22.67;;;17.20;99.90;;;;;;5081216;28;20452;-74
2022/09/08 03:37:42;;;;;;;23.70;21.50;;;17.20;99.90;;;;;;5076876;28;20498;-73
2022/09/08 03:40:12;;;;;;;28.00;25.40;;;17.20;99.90;;;;;;5073288;28;20452;-74
2022/09/08 03:42:41;;;;;;;24.43;22.13;;;17.20;99.90;;;;;;5073068;28;20449;-73
2022/09/08 03:45:17;;;;;;;27.87;25.20;;;17.20;99.90;;;;;;5070952;28;20452;-73
2022/09/08 03:47:44;;;;;;;26.20;23.80;;;17.20;99.90;;;;;;5063763;28;20483;-73
2022/09/08 03:50:13;;;;;;;27.97;25.30;;;17.20;99.90;;;;;;5072272;28;20444;-74
2022/09/08 03:52:40;;;;;;;25.20;22.73;;;17.20;99.90;;;;;;5072249;28;20775;-73
2022/09/08 03:55:08;;;;;;;26.80;24.23;;;17.20;99.90;;;;;;5073538;28;20498;-74
2022/09/08 03:57:35;;;;;;;26.90;24.40;;;17.20;99.90;;;;;;5074510;28;20468;-74
2022/09/08 04:00:04;;;;;;;31.10;28.10;;;17.20;99.90;;;;;;5072273;28;20612;-73
2022/09/08 04:02:32;;;;;;;27.97;25.40;;;17.20;99.90;;;;;;5067115;28;20851;-73
2022/09/08 04:05:00;;;;;;;27.20;24.67;;;17.10;99.90;;;;;;5066432;28;20484;-73
2022/09/08 04:07:29;;;;;;;23.90;21.60;;;17.10;99.90;;;;;;5071777;28;20475;-73
2022/09/08 04:09:58;;;;;;;28.83;26.10;;;17.00;99.90;;;;;;5071775;28;20532;-73
2022/09/08 04:12:25;;;;;;;30.63;27.73;;;17.10;99.90;;;;;;5064961;28;20206;-74
2022/09/08 04:14:53;;;;;;;28.03;25.30;;;17.00;99.90;;;;;;5062975;28;20475;-73
2022/09/08 04:17:21;;;;;;;26.37;23.87;;;17.10;99.90;;;;;;5060323;28;20496;-74
2022/09/08 04:19:51;;;;;;;27.33;24.93;;;16.90;99.90;;;;;;5060343;28;20444;-74
2022/09/08 04:22:18;;;;;;;26.52;24.02;;;16.90;99.90;;;;;;5068548;28;20527;-74
2022/09/08 04:24:46;;;;;;;30.40;27.70;;;16.90;99.90;;;;;;5071631;28;20202;-73
2022/09/08 04:27:13;;;;;;;28.47;25.77;;;16.90;99.90;;;;;;5069200;28;20658;-73
2022/09/08 04:29:40;;;;;;;22.95;20.95;;;17.00;99.90;;;;;;5065290;28;20487;-75
2022/09/08 04:32:08;;;;;;;29.17;26.47;;;17.00;99.90;;;;;;5066249;28;20288;-73
2022/09/08 04:34:35;;;;;;;26.30;23.80;;;17.00;99.90;;;;;;5067829;28;20441;-74
2022/09/08 04:37:04;;;;;;;27.02;24.60;;;17.00;99.90;;;;;;5070836;28;20561;-73
2022/09/08 04:39:33;;;;;;;28.48;25.77;;;16.90;99.90;;;;;;5068277;28;20226;-74
2022/09/08 04:42:00;;;;;;;31.40;28.40;;;17.00;99.90;;;;;;5060984;28;20308;-73
2022/09/08 04:44:27;;;;;;;34.28;30.67;;;16.90;99.90;;;;;;5070187;28;20452;-74
2022/09/08 04:46:54;;;;;;;30.70;27.40;;;16.90;99.90;;;;;;5066937;28;20226;-74
2022/09/08 04:49:21;;;;;;;30.10;27.40;;;16.90;99.90;;;;;;5063874;28;20571;-74
2022/09/08 04:51:50;;;;;;;32.00;29.03;;;16.90;99.90;;;;;;5072005;28;20212;-74
2022/09/08 04:54:22;;;;;;;33.47;30.37;;;17.00;99.90;;;;;;5067775;28;20449;-74
2022/09/08 04:56:49;;;;;;;30.80;27.70;;;17.00;99.90;;;;;;5076571;28;20895;-74
2022/09/08 04:59:17;;;;;;;28.53;25.67;;;17.10;99.90;;;;;;5059682;28;20530;-74
2022/09/08 05:01:44;;;;;;;32.92;29.88;;;17.10;99.90;;;;;;5068909;28;20563;-74
2022/09/08 05:04:10;;;;;;;27.70;24.80;;;17.10;99.90;;;;;;5071205;28;20221;-74
2022/09/08 05:06:37;;;;;;;30.08;27.27;;;17.10;99.90;;;;;;5074505;28;20236;-74
2022/09/08 05:09:05;;;;;;;30.73;27.90;;;17.10;99.90;;;;;;5070059;28;20330;-73
2022/09/08 05:11:35;;;;;;;31.30;28.07;;;17.10;99.90;;;;;;5073565;28;20481;-74
2022/09/08 05:14:02;;;;;;;35.90;32.17;;;17.10;99.90;;;;;;5074229;28;20509;-73
2022/09/08 05:16:31;;;;;;;33.83;30.73;;;17.10;99.90;;;;;;5075794;28;20507;-73
2022/09/08 05:18:59;;;;;;;30.13;27.13;;;17.20;99.90;;;;;;5075966;28;20597;-75
2022/09/08 05:21:27;;;;;;;34.67;30.93;;;17.20;99.90;;;;;;5074303;28;20483;-74
2022/09/08 05:23:55;;;;;;;34.67;31.47;;;17.20;99.90;;;;;;5075564;28;20440;-74
2022/09/08 05:26:25;;;;;;;34.93;31.50;;;17.20;99.90;;;;;;5075087;28;20444;-74
2022/09/08 05:28:53;;;;;;;33.30;29.97;;;17.20;99.90;;;;;;5075393;28;20559;-74
2022/09/08 05:31:22;;;;;;;34.13;30.50;;;17.20;99.90;;;;;;5075281;28;20461;-73
2022/09/08 05:33:50;;;;;;;32.93;29.67;;;17.20;99.90;;;;;;5079078;28;20490;-74
2022/09/08 05:36:19;;;;;;;29.17;26.30;;;17.30;99.90;;;;;;5087477;28;20479;-74
2022/09/08 05:38:48;;;;;;;31.63;28.70;;;17.30;99.90;;;;;;5091784;28;20466;-73
2022/09/08 05:41:15;;;;;;;28.00;25.40;;;17.20;99.90;;;;;;5091788;28;20606;-74
2022/09/08 05:43:43;;;;;;;31.87;28.97;;;17.30;99.90;;;;;;5062531;28;20500;-74
2022/09/08 05:46:12;;;;;;;30.27;27.37;;;17.30;99.90;;;;;;5071316;28;20457;-73
2022/09/08 05:48:39;;;;;;;32.73;29.47;;;17.30;99.90;;;;;;5066105;28;20583;-74
2022/09/08 05:51:10;;;;;;;28.13;25.53;;;17.40;99.90;;;;;;5070240;28;20473;-74
2022/09/08 05:53:37;;;;;;;25.40;22.90;;;17.40;99.90;;;;;;5069228;28;20786;-72
2022/09/08 05:56:09;;;;;;;26.60;24.17;;;17.40;99.90;;;;;;5080593;28;20535;-74
2022/09/08 05:58:36;;;;;;;28.97;26.37;;;17.40;99.90;;;;;;5072930;28;20448;-72
2022/09/08 06:01:07;;;;;;;32.03;27.17;;;17.40;99.90;;;;;;5062734;28;20449;-73
2022/09/08 06:03:36;;;;;;;30.90;27.90;;;17.40;99.90;;;;;;5073267;28;20488;-71
2022/09/08 06:06:04;;;;;;;27.30;24.93;;;17.40;99.90;;;;;;5068277;28;20470;-71
2022/09/08 06:08:32;;;;;;;27.80;25.10;;;17.50;99.90;;;;;;5059377;28;20903;-74
2022/09/08 06:11:00;;;;;;;35.33;26.37;;;17.50;99.90;;;;;;5076588;28;20444;-78
2022/09/08 06:13:27;;;;;;;25.17;22.77;;;17.50;99.90;;;;;;5062081;28;20484;-77
2022/09/08 06:16:02;;;;;;;28.53;25.30;;;17.50;99.90;;;;;;5074085;28;20489;-75
2022/09/08 06:18:28;;;;;;;29.13;26.60;;;17.50;99.90;;;;;;5074187;28;20541;-73
2022/09/08 06:21:05;;;;;;;29.23;26.67;;;17.50;99.90;;;;;;5070518;28;20448;-76
2022/09/08 06:23:31;;;;;;;27.70;25.10;;;17.50;99.90;;;;;;5065806;28;20480;-73
2022/09/08 06:25:59;;;;;;;26.47;24.03;;;17.50;99.90;;;;;;5071071;28;20464;-76
2022/09/08 06:28:33;;;;;;;28.37;25.73;;;17.60;99.90;;;;;;5070925;28;20486;-71
2022/09/08 06:31:01;;;;;;;24.40;22.00;;;17.60;99.90;;;;;;5071705;28;20445;-74
2022/09/08 06:33:34;;;;;;;25.73;23.33;;;17.60;99.90;;;;;;5073986;28;20549;-75
2022/09/08 06:36:11;;;;;;;27.00;24.40;;;17.70;99.90;;;;;;5074284;28;20525;-73
2022/09/08 06:38:46;;;;;;;24.47;22.03;;;17.70;99.90;;;;;;5068506;28;20878;-74
2022/09/08 06:41:16;;;;;;;25.60;23.10;;;17.80;99.90;;;;;;5073766;28;20476;-75
2022/09/08 06:43:46;;;;;;;27.23;24.63;;;17.80;99.90;;;;;;5073750;28;20521;-74
2022/09/08 06:46:22;;;;;;;30.80;27.83;;;17.90;99.90;;;;;;5072666;28;20535;-74
2022/09/08 06:48:49;;;;;;;27.20;24.70;;;17.90;99.90;;;;;;5065334;28;20474;-75
2022/09/08 06:51:37;;;;;;;27.47;24.80;;;17.90;99.90;;;;;;5073041;28;20526;-73
2022/09/08 06:54:20;;;;;;;27.47;24.63;;;17.90;99.90;;;;;;5066261;28;20446;-75
2022/09/08 06:56:58;;;;;;;26.60;24.00;;;18.00;99.90;;;;;;5070229;28;20492;-75
2022/09/08 06:59:41;;;;;;;26.33;22.87;;;18.00;99.90;;;;;;5070345;28;20437;-74
2022/09/08 07:02:31;;;;;;;25.17;22.63;;;18.00;99.90;;;;;;5073242;28;20477;-73
2022/09/08 07:05:01;;;;;;;24.53;22.13;;;18.00;99.90;;;;;;5066465;28;20448;-75
2022/09/08 07:07:38;;;;;;;24.37;21.50;;;18.10;99.90;;;;;;5063628;28;20965;-75
2022/09/08 07:10:12;;;;;;;24.47;22.17;;;18.20;99.90;;;;;;5068800;28;20860;-75
2022/09/08 07:12:49;;;;;;;25.20;22.70;;;18.20;99.90;;;;;;5064988;28;20418;-76
2022/09/08 07:15:35;;;;;;;24.27;22.03;;;18.20;99.90;;;;;;5071529;28;20623;-76
2022/09/08 07:18:13;;;;;;;25.43;23.03;;;18.30;99.90;;;;;;5066066;28;20549;-74
2022/09/08 07:20:39;;;;;;;26.00;21.60;;;18.20;99.90;;;;;;5071253;28;20818;-75
2022/09/08 07:23:15;;;;;;;25.73;22.73;;;18.20;99.90;;;;;;5069337;28;20481;-73
2022/09/08 07:25:49;;;;;;;24.27;22.07;;;18.10;99.90;;;;;;5065129;28;20467;-75
2022/09/08 07:28:20;;;;;;;24.03;21.70;;;18.10;99.90;;;;;;5068632;28;20461;-75
2022/09/08 07:30:54;;;;;;;25.87;23.30;;;18.10;99.90;;;;;;5065082;28;21072;-75
2022/09/08 07:33:25;;;;;;;24.43;22.10;;;18.00;99.90;;;;;;5064006;28;20529;-73
2022/09/08 07:35:59;;;;;;;24.83;22.40;;;18.10;99.90;;;;;;5080995;28;20452;-73
2022/09/08 07:38:36;;;;;;;27.43;23.83;;;18.10;99.90;;;;;;5075773;28;20464;-74
2022/09/08 07:41:07;;;;;;;23.20;20.93;;;18.20;99.90;;;;;;5061654;28;20441;-74
2022/09/08 07:43:33;;;;;;;25.60;23.00;;;18.20;99.90;;;;;;5068286;28;20467;-75
2022/09/08 07:46:35;;;;;;;23.70;21.30;;;18.20;99.90;;;;;;5066832;28;20871;-75
2022/09/08 07:49:11;;;;;;;22.20;20.10;;;18.30;99.90;;;;;;5069348;28;20573;-76
2022/09/08 07:51:51;;;;;;;22.47;20.47;;;18.30;99.90;;;;;;5064305;28;20479;-74
2022/09/08 07:54:42;;;;;;;23.73;21.33;;;18.50;99.90;;;;;;5070428;28;20439;-74
2022/09/08 07:57:19;;;;;;;23.83;21.00;;;18.50;99.90;;;;;;5064881;28;20460;-75
2022/09/08 07:59:53;;;;;;;24.30;22.13;;;18.50;99.90;;;;;;5058106;28;20463;-75
2022/09/08 08:02:47;;;;;;;24.40;21.50;;;18.50;99.90;;;;;;5070954;28;20524;-75
2022/09/08 08:05:25;;;;;;;19.70;17.90;;;18.60;99.90;;;;;;5037127;28;20855;-75
2022/09/08 08:08:06;;;;;;;22.63;20.60;;;18.60;99.90;;;;;;5064062;28;20475;-73
2022/09/08 08:10:41;;;;;;;23.53;21.23;;;18.60;99.90;;;;;;5068321;28;20487;-74
2022/09/08 08:13:30;;;;;;;23.67;21.37;;;18.60;99.90;;;;;;5075972;28;20532;-74
2022/09/08 08:16:05;;;;;;;22.10;20.03;;;18.60;99.90;;;;;;5082199;28;20680;-76
2022/09/08 08:18:43;;;;;;;25.50;23.10;;;18.70;99.90;;;;;;5084377;28;20488;-73
2022/09/08 08:21:15;;;;;;;23.27;21.17;;;18.80;99.90;;;;;;5075926;28;20433;-73
2022/09/08 08:23:55;;;;;;;24.37;22.10;;;18.70;99.90;;;;;;5081210;28;20494;-74
2022/09/08 08:26:32;;;;;;;23.03;20.73;;;18.70;99.90;;;;;;5072908;28;20449;-75
2022/09/08 08:29:22;;;;;;;23.53;20.90;;;18.80;99.90;;;;;;5074361;28;20866;-76
2022/09/08 08:31:54;;;;;;;24.53;21.93;;;18.70;99.90;;;;;;5077726;28;20469;-73
2022/09/08 08:34:27;;;;;;;23.43;19.27;;;18.80;99.90;;;;;;5080474;28;20636;-72
2022/09/08 08:37:01;;;;;;;24.40;21.13;;;18.80;99.90;;;;;;5083527;28;20546;-74
2022/09/08 08:39:29;;;;;;;20.93;18.73;;;18.80;99.90;;;;;;5085758;28;20443;-73
2022/09/08 08:42:15;;;;;;;24.57;22.07;;;18.80;99.90;;;;;;5074744;28;20520;-72
2022/09/08 08:44:58;;;;;;;35.80;20.30;;;18.80;99.90;;;;;;5075096;28;20489;-75
2022/09/08 08:47:43;;;;;;;21.83;19.70;;;18.80;99.90;;;;;;5076219;28;20472;-73
2022/09/08 08:50:33;;;;;;;21.43;19.33;;;18.90;99.90;;;;;;5072223;28;20488;-74
2022/09/08 08:53:23;;;;;;;24.93;20.93;;;19.00;99.90;;;;;;5078575;28;20447;-74
2022/09/08 08:56:00;;;;;;;24.73;22.40;;;18.90;99.90;;;;;;5070352;28;20436;-75
2022/09/08 08:59:06;;;;;;;24.87;22.60;;;18.90;99.90;;;;;;5078923;28;20477;-75
2022/09/08 09:01:44;;;;;;;26.87;24.30;;;18.60;99.90;;;;;;5073680;28;20455;-73
2022/09/08 09:04:38;;;;;;;24.13;22.03;;;18.70;99.90;;;;;;5066375;28;20495;-73
2022/09/08 09:07:35;;;;;;;26.40;23.60;;;18.70;99.90;;;;;;5071270;28;20592;-76
2022/09/08 09:10:49;;;;;;;27.87;25.10;;;18.70;99.90;;;;;;5065054;28;20484;-75
2022/09/08 09:13:48;;;;;;;24.23;21.90;;;18.70;99.90;;;;;;5072021;28;20433;-74
2022/09/08 09:16:43;;;;;;;28.17;25.40;;;18.70;99.90;;;;;;5043567;28;20449;-74
2022/09/08 09:19:47;;;;;;;26.10;23.60;;;18.70;99.90;;;;;;5068311;28;20473;-78
2022/09/08 09:22:20;;;;;;;27.27;24.87;;;18.70;99.90;;;;;;5055911;28;20448;-76
2022/09/08 09:25:10;;;;;;;32.37;28.87;;;18.80;99.90;;;;;;5075818;28;20468;-75
2022/09/08 09:27:43;;;;;;;25.90;23.47;;;18.90;99.90;;;;;;5070820;28;20474;-76
2022/09/08 09:30:24;;;;;;;28.97;26.07;;;18.90;99.90;;;;;;5066809;28;20564;-74
2022/09/08 09:33:39;;;;;;;30.17;27.27;;;19.00;99.90;;;;;;5069286;28;20484;-76
2022/09/08 09:36:19;;;;;;;29.27;26.53;;;18.90;99.90;;;;;;5071945;28;20454;-75
2022/09/08 09:39:01;;;;;;;31.10;28.10;;;18.90;99.90;;;;;;5067723;28;20796;-76
2022/09/08 09:41:42;;;;;;;35.70;31.97;;;18.80;99.90;;;;;;5066860;28;20518;-74
2022/09/08 09:44:25;;;;;;;31.27;27.93;;;18.90;99.90;;;;;;5079157;28;20440;-72
2022/09/08 09:47:16;;;;;;;32.27;28.93;;;18.90;99.90;;;;;;5083582;28;20543;-77
2022/09/08 09:50:05;;;;;;;33.60;30.30;;;18.90;99.90;;;;;;5069592;28;20569;-75
2022/09/08 09:52:41;;;;;;;33.97;30.67;;;18.90;99.90;;;;;;5076935;28;20436;-76
2022/09/08 09:55:24;;;;;;;33.27;30.07;;;18.80;99.90;;;;;;5080632;28;20445;-76
2022/09/08 09:58:30;;;;;;;33.53;30.40;;;18.80;99.90;;;;;;5068807;28;20475;-78
2022/09/08 10:01:25;;;;;;;34.90;31.37;;;18.70;99.90;;;;;;5075173;28;20441;-75
2022/09/08 10:04:27;;;;;;;31.43;28.43;;;18.70;99.90;;;;;;5069047;28;20948;-78
2022/09/08 10:07:42;;;;;;;37.27;33.53;;;18.70;99.90;;;;;;5039890;28;20526;-75
2022/09/08 10:10:33;;;;;;;36.30;33.07;;;18.60;99.90;;;;;;5003459;28;20478;-76
2022/09/08 10:13:54;;;;;;;35.80;32.40;;;18.60;99.90;;;;;;5013624;28;20510;-77
2022/09/08 10:16:58;;;;;;;34.53;31.13;;;18.60;99.90;;;;;;5066309;28;20485;-77
2022/09/08 10:19:52;;;;;;;33.97;30.43;;;18.60;99.90;;;;;;5075278;28;20444;-76
2022/09/08 10:22:42;;;;;;;36.77;33.17;;;18.60;99.90;;;;;;5065159;28;20553;-75
2022/09/08 10:25:25;;;;;;;34.50;31.10;;;18.60;99.90;;;;;;5064512;28;20914;-75
2022/09/08 10:28:30;;;;;;;36.60;32.57;;;18.70;99.90;;;;;;5072890;28;20551;-76
2022/09/08 10:31:33;;;;;;;39.93;35.73;;;18.70;99.90;;;;;;5067048;28;20499;-77
2022/09/08 10:34:38;;;;;;;38.93;35.03;;;18.70;99.90;;;;;;5074638;28;20448;-75
2022/09/08 10:37:14;;;;;;;35.23;31.60;;;18.70;99.90;;;;;;5068917;28;20527;-79
2022/09/08 10:40:04;;;;;;;39.30;35.50;;;18.80;99.90;;;;;;5072344;28;20436;-75
2022/09/08 10:42:51;;;;;;;43.47;39.03;;;18.70;99.90;;;;;;5059672;28;20464;-78
2022/09/08 10:45:23;;;;;;;41.40;37.30;;;18.70;99.90;;;;;;5069483;28;20454;-74
2022/09/08 10:48:19;;;;;;;40.93;36.97;;;18.70;99.90;;;;;;5070072;28;20464;-75
2022/09/08 10:50:51;;;;;;;39.90;36.00;;;18.70;99.90;;;;;;5041924;28;20528;-74
2022/09/08 10:54:01;;;;;;;41.47;37.20;;;18.80;99.90;;;;;;5065219;28;20457;-77
2022/09/08 10:56:29;;;;;;;44.90;39.30;;;18.80;99.90;;;;;;5002455;28;20579;-76
2022/09/08 10:59:33;;;;;;;44.90;40.43;;;18.80;99.90;;;;;;5067093;28;20988;-75
2022/09/08 11:02:29;;;;;;;44.17;39.37;;;18.90;99.90;;;;;;5069592;28;20440;-76
2022/09/08 11:05:26;;;;;;;48.23;43.07;;;18.90;99.90;;;;;;5080996;28;20433;-74
2022/09/08 11:08:47;;;;;;;43.27;38.87;;;18.90;99.90;;;;;;5066179;28;20460;-75
2022/09/08 11:11:37;;;;;;;48.10;43.20;;;18.90;99.90;;;;;;5011111;28;20556;-73
2022/09/08 11:14:11;;;;;;;51.37;46.10;;;19.00;99.90;;;;;;5074809;28;20453;-76
2022/09/08 11:17:01;;;;;;;48.20;42.60;;;19.00;99.90;;;;;;5077283;28;20472;-77
2022/09/08 11:19:38;;;;;;;44.53;40.30;;;19.10;99.90;;;;;;5073425;28;20532;-76
2022/09/08 11:22:27;;;;;;;47.57;42.73;;;19.10;99.90;;;;;;5072545;28;20439;-76
2022/09/08 11:25:12;;;;;;;45.33;40.70;;;19.10;99.90;;;;;;5061406;28;20447;-74
2022/09/08 11:27:49;;;;;;;38.50;34.70;;;19.10;99.90;;;;;;5072396;28;20858;-77
2022/09/08 11:30:20;;;;;;;39.77;35.73;;;19.20;99.90;;;;;;5071902;28;20512;-77
2022/09/08 11:33:03;;;;;;;46.57;41.93;;;19.10;99.90;;;;;;5092069;28;20441;-75
2022/09/08 11:35:42;;;;;;;39.93;35.93;;;19.10;99.90;;;;;;5078683;28;20797;-75
2022/09/08 11:38:39;;;;;;;43.23;38.53;;;19.20;99.90;;;;;;5068083;28;20469;-75
2022/09/08 11:41:34;;;;;;;40.63;36.23;;;19.20;99.90;;;;;;5056603;28;20445;-77
2022/09/08 11:44:32;;;;;;;39.73;35.80;;;19.10;99.90;;;;;;5065888;28;20445;-76
2022/09/08 11:47:15;;;;;;;39.90;34.43;;;19.10;99.90;;;;;;5062612;28;20509;-74
2022/09/08 11:50:28;;;;;;;35.97;32.47;;;19.10;99.90;;;;;;5071751;28;20445;-76
2022/09/08 11:53:35;;;;;;;40.93;36.57;;;19.30;99.90;;;;;;5072844;28;20445;-75
2022/09/08 11:56:16;;;;;;;38.50;34.07;;;19.30;99.90;;;;;;5071020;28;20476;-75
2022/09/08 11:59:00;;;;;;;40.30;36.03;;;19.40;99.90;;;;;;5069663;28;20636;-75
2022/09/08 12:01:40;;;;;;;37.57;33.47;;;19.40;99.90;;;;;;5075152;28;20441;-74
2022/09/08 12:04:44;;;;;;;37.30;33.10;;;19.40;99.90;;;;;;5072567;28;20445;-75
2022/09/08 12:07:27;;;;;;;33.80;30.23;;;19.40;99.90;;;;;;5068780;28;20580;-75
2022/09/08 12:10:32;;;;;;;30.17;27.20;;;19.50;99.90;;;;;;5068862;28;20445;-72
2022/09/08 12:13:06;;;;;;;30.00;27.10;;;19.60;99.90;;;;;;5067201;28;20460;-75
2022/09/08 12:15:50;;;;;;;28.50;25.67;;;19.60;99.90;;;;;;5082120;28;20433;-74
2022/09/08 12:18:37;;;;;;;28.60;25.80;;;19.60;99.90;;;;;;5059840;28;20825;-74
2022/09/08 12:21:41;;;;;;;26.93;24.37;;;19.60;99.90;;;;;;5071772;28;20453;-73
2022/09/08 12:24:33;;;;;;;24.10;21.80;;;19.60;99.90;;;;;;5074018;28;20444;-74
2022/09/08 12:27:12;;;;;;;20.30;18.27;;;19.50;99.90;;;;;;5064007;28;20974;-75
2022/09/08 12:30:00;;;;;;;23.57;21.37;;;19.40;99.90;;;;;;5062920;28;20778;-74
2022/09/08 12:32:51;;;;;;;21.40;18.23;;;19.40;99.90;;;;;;5073235;28;20892;-75
2022/09/08 12:35:32;;;;;;;17.83;16.20;;;19.40;99.90;;;;;;5068827;28;20574;-74
2022/09/08 12:38:17;;;;;;;17.27;15.43;;;19.40;99.90;;;;;;5062881;28;20545;-76
2022/09/08 12:41:14;;;;;;;16.90;14.43;;;19.30;99.90;;;;;;5055011;28;20473;-76
2022/09/08 12:43:43;;;;;;;13.73;12.33;;;19.30;99.90;;;;;;5056930;28;20510;-75
2022/09/08 12:46:43;;;;;;;13.70;12.50;;;19.20;99.90;;;;;;5072055;28;20456;-74
2022/09/08 12:49:29;;;;;;;16.27;14.67;;;19.20;99.90;;;;;;5062203;28;20484;-74
2022/09/08 12:52:01;;;;;;;13.30;11.97;;;19.20;99.90;;;;;;5066039;28;20502;-76
2022/09/08 12:54:39;;;;;;;14.10;12.70;;;19.20;99.90;;;;;;5071884;28;20476;-75
2022/09/08 12:57:31;;;;;;;14.17;12.83;;;19.20;99.90;;;;;;5070408;28;20543;-76
2022/09/08 13:00:03;;;;;;;15.20;13.67;;;19.20;99.90;;;;;;5064953;28;20943;-76
2022/09/08 13:03:02;;;;;;;18.50;16.60;;;19.30;99.90;;;;;;5071717;28;20453;-73
2022/09/08 13:05:46;;;;;;;17.13;15.43;;;19.30;99.90;;;;;;5059251;28;21178;-73
2022/09/08 13:08:24;;;;;;;15.57;13.80;;;19.20;99.90;;;;;;5064925;28;20974;-74
2022/09/08 13:11:01;;;;;;;14.83;13.33;;;19.20;99.90;;;;;;5065833;28;20473;-72
2022/09/08 13:13:38;;;;;;;10.50;9.43;;;19.20;99.90;;;;;;5063737;28;20542;-76
2022/09/08 13:16:30;;;;;;;8.23;5.93;;;19.10;99.90;;;;;;5069306;28;20436;-74
2022/09/08 13:19:11;;;;;;;6.60;6.00;;;19.10;99.90;;;;;;5065280;28;20464;-73
2022/09/08 13:22:01;;;;;;;6.70;6.10;;;19.10;99.90;;;;;;5074139;28;20437;-76